Time;durP1;ratioP1;P1;durP2;ratioP2;P2;SDS_P1;SDS_P2;PMS_P1;PMS_P2;Temp;Humidity;BMP_temperature;BMP_pressure;BME280_temperature;BME280_humidity;BME280_pressure;Samples;Min_cycle;Max_cycle;Signal;HPM_P1;HPM_P2
2022/04/28 00:00:19;;;;;;;15.93;7.33;;;7.50;99.90;;;;;;5013064;28;20251;-83
2022/04/28 00:02:46;;;;;;;18.07;7.33;;;7.50;99.90;;;;;;5012852;28;20191;-83
2022/04/28 00:05:12;;;;;;;17.63;7.30;;;7.40;99.90;;;;;;5012790;28;20297;-83
2022/04/28 00:07:38;;;;;;;18.70;7.60;;;7.30;99.90;;;;;;5013617;28;20222;-83
2022/04/28 00:10:05;;;;;;;16.50;7.33;;;7.30;99.90;;;;;;5012862;28;20247;-84
2022/04/28 00:12:32;;;;;;;19.13;7.27;;;7.20;99.90;;;;;;5012746;28;20179;-85
2022/04/28 00:14:58;;;;;;;23.50;8.53;;;7.30;99.90;;;;;;5012902;28;20265;-83
2022/04/28 00:17:23;;;;;;;18.67;7.37;;;7.20;99.90;;;;;;5013083;28;20266;-84
2022/04/28 00:19:49;;;;;;;22.37;8.37;;;7.10;99.90;;;;;;5012633;28;20259;-85
2022/04/28 00:22:16;;;;;;;18.90;8.67;;;7.10;99.90;;;;;;5012529;28;20178;-84
2022/04/28 00:24:43;;;;;;;18.90;8.57;;;7.10;99.90;;;;;;5012464;28;20243;-84
2022/04/28 00:27:09;;;;;;;18.20;8.10;;;7.10;99.90;;;;;;5013110;28;20192;-84
2022/04/28 00:29:34;;;;;;;20.60;8.07;;;7.00;99.90;;;;;;5012482;28;20247;-83
2022/04/28 00:32:01;;;;;;;15.50;8.27;;;7.00;99.90;;;;;;5012403;28;20201;-84
2022/04/28 00:34:26;;;;;;;18.87;8.37;;;7.00;99.90;;;;;;5013639;28;20171;-84
2022/04/28 00:36:52;;;;;;;18.30;8.80;;;7.00;99.90;;;;;;5012587;28;20197;-84
2022/04/28 00:39:18;;;;;;;17.43;8.57;;;6.90;99.90;;;;;;5012242;28;20172;-84
2022/04/28 00:41:43;;;;;;;23.53;8.67;;;6.90;99.90;;;;;;5011880;28;20185;-84
2022/04/28 00:44:11;;;;;;;18.87;8.40;;;6.80;99.90;;;;;;5011885;28;20736;-84
2022/04/28 00:46:37;;;;;;;14.23;8.10;;;6.70;99.90;;;;;;5012459;28;20194;-85
2022/04/28 00:51:47;;;;;;;22.13;7.97;;;6.80;99.90;;;;;;5013309;28;20190;-84
2022/04/28 00:54:13;;;;;;;20.33;8.30;;;6.70;99.90;;;;;;5010892;28;20530;-85
2022/04/28 00:56:40;;;;;;;22.57;8.60;;;6.70;99.90;;;;;;5013162;28;20571;-84
2022/04/28 00:59:06;;;;;;;16.93;7.97;;;6.70;99.90;;;;;;5012510;28;20192;-83
2022/04/28 01:01:32;;;;;;;19.00;8.03;;;6.60;99.90;;;;;;5012765;28;20177;-83
2022/04/28 01:03:59;;;;;;;20.63;9.43;;;6.60;99.90;;;;;;5012628;28;20197;-83
2022/04/28 01:06:25;;;;;;;16.57;8.40;;;6.70;99.90;;;;;;5013148;28;20201;-83
2022/04/28 01:08:51;;;;;;;18.93;8.63;;;6.70;99.90;;;;;;5012485;28;20637;-83
2022/04/28 01:11:17;;;;;;;22.90;8.57;;;6.60;99.90;;;;;;5012325;28;20179;-83
2022/04/28 01:13:44;;;;;;;21.10;8.77;;;6.60;99.90;;;;;;5012476;28;20172;-84
2022/04/28 01:16:11;;;;;;;19.87;8.90;;;6.60;99.90;;;;;;5012966;28;20197;-85
2022/04/28 01:18:37;;;;;;;26.67;8.60;;;6.40;99.90;;;;;;5012406;28;20303;-84
2022/04/28 01:21:04;;;;;;;20.00;9.50;;;6.50;99.90;;;;;;5012088;28;20644;-84
2022/04/28 01:23:32;;;;;;;26.90;8.73;;;6.50;99.90;;;;;;5012187;28;20226;-84
2022/04/28 01:25:58;;;;;;;20.97;8.83;;;6.50;99.90;;;;;;5013005;28;20202;-84
2022/04/28 01:28:25;;;;;;;22.10;8.50;;;6.40;99.90;;;;;;5012032;28;20178;-84
2022/04/28 01:30:51;;;;;;;19.87;8.63;;;6.30;99.90;;;;;;5012352;28;20176;-84
2022/04/28 01:33:17;;;;;;;31.10;9.57;;;6.30;99.90;;;;;;5011816;28;20179;-84
2022/04/28 01:35:42;;;;;;;27.33;9.17;;;6.40;99.90;;;;;;5012506;28;20178;-85
2022/04/28 01:38:08;;;;;;;25.30;9.07;;;6.30;99.90;;;;;;5012147;28;20170;-84
2022/04/28 01:40:34;;;;;;;31.27;9.93;;;6.30;99.90;;;;;;5012086;28;20174;-84
2022/04/28 01:42:59;;;;;;;18.83;8.53;;;6.30;99.90;;;;;;5011730;28;20600;-84
2022/04/28 01:45:25;;;;;;;29.40;9.80;;;6.30;99.90;;;;;;5011652;28;20225;-84
2022/04/28 01:47:50;;;;;;;20.20;9.23;;;6.40;99.90;;;;;;5012689;28;20222;-84
2022/04/28 01:50:16;;;;;;;18.47;8.57;;;6.20;99.90;;;;;;5012395;28;20612;-84
2022/04/28 01:55:26;;;;;;;21.53;9.33;;;6.10;99.90;;;;;;5013476;28;20218;-85
2022/04/28 01:57:51;;;;;;;23.43;9.00;;;6.10;99.90;;;;;;5012103;28;20196;-84
2022/04/28 02:00:17;;;;;;;24.77;9.67;;;6.10;99.90;;;;;;5011423;28;20254;-84
2022/04/28 02:02:43;;;;;;;22.47;8.50;;;5.90;99.90;;;;;;5010987;28;20188;-84
2022/04/28 02:05:10;;;;;;;22.73;9.83;;;6.00;99.90;;;;;;5011446;28;20206;-84
2022/04/28 02:07:37;;;;;;;31.87;9.37;;;6.00;99.90;;;;;;5015804;28;20560;-84
2022/04/28 02:10:04;;;;;;;27.57;9.83;;;6.10;99.90;;;;;;5015151;28;20539;-83
2022/04/28 02:12:30;;;;;;;22.90;9.10;;;6.00;99.90;;;;;;5014897;28;20268;-83
2022/04/28 02:14:56;;;;;;;24.93;8.80;;;5.90;99.90;;;;;;5015091;28;20258;-83
2022/04/28 02:17:25;;;;;;;22.73;9.37;;;5.90;99.90;;;;;;5015479;28;20197;-83
2022/04/28 02:19:51;;;;;;;23.47;9.53;;;6.00;99.90;;;;;;5015196;28;20591;-83
2022/04/28 02:22:18;;;;;;;19.47;8.67;;;5.90;99.90;;;;;;5016346;28;20177;-84
2022/04/28 02:24:44;;;;;;;25.00;9.63;;;6.00;99.90;;;;;;5015335;28;20226;-83
2022/04/28 02:27:10;;;;;;;18.53;8.90;;;5.90;99.90;;;;;;5015594;28;20193;-83
2022/04/28 02:29:36;;;;;;;23.77;8.93;;;5.90;99.90;;;;;;5015138;28;20269;-83
2022/04/28 02:32:02;;;;;;;20.57;9.23;;;5.90;99.90;;;;;;5014736;28;20210;-84
2022/04/28 02:34:28;;;;;;;24.83;9.43;;;5.80;99.90;;;;;;5014817;28;20230;-82
2022/04/28 02:36:54;;;;;;;21.70;9.23;;;5.80;99.90;;;;;;5015307;28;20201;-83
2022/04/28 02:39:19;;;;;;;24.57;9.10;;;5.80;99.90;;;;;;5015024;28;20634;-83
2022/04/28 02:41:46;;;;;;;20.43;9.43;;;5.70;99.90;;;;;;5014658;28;20267;-83
2022/04/28 02:44:12;;;;;;;20.57;9.10;;;5.70;99.90;;;;;;5014489;28;20200;-83
2022/04/28 02:46:48;;;;;;;17.60;9.33;;;5.70;99.90;;;;;;5015133;28;20198;-84
2022/04/28 02:49:14;;;;;;;22.23;9.43;;;5.70;99.90;;;;;;5014707;28;20163;-83
2022/04/28 02:51:40;;;;;;;23.63;9.83;;;5.70;99.90;;;;;;5014459;28;20241;-83
2022/04/28 02:54:06;;;;;;;23.33;9.93;;;5.70;99.90;;;;;;5014349;28;20205;-83
2022/04/28 02:56:32;;;;;;;23.17;10.07;;;5.50;99.90;;;;;;5015071;28;20202;-83
2022/04/28 02:58:58;;;;;;;20.70;9.53;;;5.50;99.90;;;;;;5015386;28;20191;-83
2022/04/28 03:01:24;;;;;;;29.27;10.60;;;5.60;99.90;;;;;;5015233;28;20527;-83
2022/04/28 03:03:50;;;;;;;21.30;9.87;;;5.50;99.90;;;;;;5014959;28;20298;-82
2022/04/28 03:11:49;;;;;;;25.47;9.60;;;5.40;99.90;;;;;;5016316;28;20190;-82
2022/04/28 03:14:15;;;;;;;22.53;10.20;;;5.40;99.90;;;;;;5015205;28;20182;-83
2022/04/28 03:16:41;;;;;;;23.27;9.87;;;5.40;99.90;;;;;;5014854;28;20240;-83
2022/04/28 03:19:07;;;;;;;25.00;10.30;;;5.40;99.90;;;;;;5015737;28;20176;-83
2022/04/28 03:21:33;;;;;;;25.40;9.60;;;5.40;99.90;;;;;;5014833;28;20176;-84
2022/04/28 03:23:59;;;;;;;24.57;10.07;;;5.40;99.90;;;;;;5014840;28;20200;-82
2022/04/28 03:26:25;;;;;;;23.73;9.97;;;5.30;99.90;;;;;;5015452;28;20199;-82
2022/04/28 03:28:50;;;;;;;21.13;9.57;;;5.20;99.90;;;;;;5014747;28;20170;-83
2022/04/28 03:31:16;;;;;;;22.67;10.03;;;5.20;99.90;;;;;;5014551;28;20176;-83
2022/04/28 03:33:42;;;;;;;25.37;11.53;;;5.20;99.90;;;;;;5014301;28;20182;-83
2022/04/28 03:38:52;;;;;;;34.67;10.67;;;5.10;99.90;;;;;;5016283;28;20665;-83
2022/04/28 03:41:17;;;;;;;24.70;10.10;;;5.10;99.90;;;;;;5014094;28;20175;-83
2022/04/28 03:43:44;;;;;;;32.50;10.67;;;5.20;99.90;;;;;;5014065;28;20207;-83
2022/04/28 03:46:11;;;;;;;29.37;11.10;;;5.20;99.90;;;;;;5014540;28;20196;-83
2022/04/28 03:48:37;;;;;;;27.87;10.40;;;5.10;99.90;;;;;;5014029;28;20717;-83
2022/04/28 03:51:03;;;;;;;25.03;10.83;;;5.10;99.90;;;;;;5014236;28;20635;-83
2022/04/28 03:53:30;;;;;;;27.97;11.10;;;5.20;99.90;;;;;;5014175;28;20179;-82
2022/04/28 03:55:57;;;;;;;25.37;10.53;;;5.10;99.90;;;;;;5013956;28;20176;-84
2022/04/28 03:58:25;;;;;;;27.17;10.70;;;5.10;99.90;;;;;;5013261;28;20611;-83
2022/04/28 04:00:51;;;;;;;29.50;10.63;;;5.00;99.90;;;;;;5013334;28;20171;-83
2022/04/28 04:03:19;;;;;;;28.30;10.73;;;5.10;99.90;;;;;;5013337;28;20236;-84
2022/04/28 04:05:45;;;;;;;28.00;10.93;;;5.00;99.90;;;;;;5013858;28;20544;-84
2022/04/28 04:08:12;;;;;;;23.43;10.27;;;5.00;99.90;;;;;;5013148;28;20250;-83
2022/04/28 04:10:37;;;;;;;27.93;11.37;;;5.00;99.90;;;;;;5013774;28;20631;-84
2022/04/28 04:13:03;;;;;;;24.63;10.73;;;4.90;99.90;;;;;;5012859;28;20210;-84
2022/04/28 04:15:29;;;;;;;28.73;11.50;;;5.00;99.90;;;;;;5012877;28;20196;-83
2022/04/28 04:17:54;;;;;;;26.40;11.00;;;4.90;99.90;;;;;;5014567;28;20226;-83
2022/04/28 04:20:20;;;;;;;25.73;11.07;;;4.90;99.90;;;;;;5015181;28;20175;-84
2022/04/28 04:22:46;;;;;;;27.27;10.33;;;4.90;99.90;;;;;;5012641;28;20252;-83
2022/04/28 04:25:11;;;;;;;27.87;11.57;;;4.90;99.90;;;;;;5012827;28;20206;-84
2022/04/28 04:27:37;;;;;;;27.53;11.23;;;4.90;99.90;;;;;;5013161;28;20199;-83
2022/04/28 04:32:17;;;;;;;35.23;11.40;;;4.90;99.90;;;;;;5013160;28;20289;-83
2022/04/28 04:32:50;;;;;;;29.83;11.50;;;4.90;99.90;;;;;;5014535;28;20636;-84
2022/04/28 04:35:16;;;;;;;25.30;11.53;;;4.90;99.90;;;;;;5013259;28;20185;-83
2022/04/28 04:37:43;;;;;;;26.63;11.70;;;5.00;99.90;;;;;;5013601;28;20233;-83
2022/04/28 04:40:11;;;;;;;31.40;11.03;;;4.90;99.90;;;;;;5013068;28;20232;-83
2022/04/28 04:42:37;;;;;;;23.03;10.93;;;5.00;99.90;;;;;;5013094;28;20177;-83
2022/04/28 04:45:03;;;;;;;26.43;10.90;;;5.00;99.90;;;;;;5012957;28;20252;-84
2022/04/28 04:47:29;;;;;;;27.87;11.07;;;5.10;99.90;;;;;;5013711;28;20196;-84
2022/04/28 04:49:54;;;;;;;24.53;11.00;;;5.00;99.90;;;;;;5012946;28;20174;-83
2022/04/28 04:52:20;;;;;;;32.87;10.80;;;5.00;99.90;;;;;;5012735;28;20656;-83
2022/04/28 04:54:45;;;;;;;31.73;12.20;;;5.00;99.90;;;;;;5012833;28;20180;-83
2022/04/28 04:57:11;;;;;;;27.43;10.70;;;5.20;99.90;;;;;;5015247;28;20207;-83
2022/04/28 04:59:37;;;;;;;23.23;10.63;;;5.30;99.90;;;;;;5017977;28;20195;-84
2022/04/28 05:02:02;;;;;;;22.60;10.90;;;5.40;99.90;;;;;;5016786;28;20543;-84
2022/04/28 05:04:28;;;;;;;29.23;10.37;;;5.40;99.90;;;;;;5015563;28;20203;-83
2022/04/28 05:06:54;;;;;;;23.27;10.17;;;5.50;99.90;;;;;;5016843;28;20320;-83
2022/04/28 05:09:19;;;;;;;24.00;10.23;;;5.60;99.90;;;;;;5016562;28;20176;-84
2022/04/28 05:11:45;;;;;;;26.47;10.20;;;5.60;99.90;;;;;;5017148;28;20175;-84
2022/04/28 05:14:11;;;;;;;23.53;10.47;;;5.70;99.90;;;;;;5016177;28;20180;-83
2022/04/28 05:16:36;;;;;;;17.57;9.37;;;5.70;99.90;;;;;;5017243;28;20206;-83
2022/04/28 05:19:02;;;;;;;26.73;10.70;;;5.80;99.90;;;;;;5016203;28;20175;-83
2022/04/28 05:21:27;;;;;;;20.97;9.83;;;5.80;99.90;;;;;;5016970;28;20184;-83
2022/04/28 05:23:53;;;;;;;19.43;9.27;;;5.90;99.90;;;;;;5016119;28;20199;-84
2022/04/28 05:26:19;;;;;;;25.00;10.13;;;6.10;99.90;;;;;;5017239;28;20196;-84
2022/04/28 05:28:45;;;;;;;24.80;10.63;;;6.10;99.90;;;;;;5016605;28;20201;-83
2022/04/28 05:31:10;;;;;;;29.50;10.33;;;6.20;99.90;;;;;;5015943;28;20179;-84
2022/04/28 05:33:38;;;;;;;25.00;9.70;;;6.20;99.90;;;;;;5015448;28;20638;-84
2022/04/28 05:36:08;;;;;;;24.07;9.53;;;6.40;99.90;;;;;;5016770;28;20198;-84
2022/04/28 05:38:35;;;;;;;24.23;10.77;;;6.40;99.90;;;;;;5015547;28;20170;-84
2022/04/28 05:41:00;;;;;;;25.43;10.27;;;6.30;99.90;;;;;;5014558;28;20589;-83
2022/04/28 05:46:10;;;;;;;27.43;10.30;;;6.60;99.90;;;;;;5016161;28;20201;-84
2022/04/28 05:48:36;;;;;;;25.60;10.57;;;7.00;99.90;;;;;;5015881;28;20179;-83
2022/04/28 05:51:02;;;;;;;24.30;9.63;;;7.20;99.90;;;;;;5015103;28;20173;-85
2022/04/28 05:53:28;;;;;;;18.53;9.80;;;7.50;99.90;;;;;;5016745;28;20198;-85
2022/04/28 05:55:53;;;;;;;23.70;9.97;;;7.40;99.90;;;;;;5014264;28;20590;-85
2022/04/28 05:58:19;;;;;;;27.17;10.40;;;7.70;99.90;;;;;;5012628;28;20663;-83
2022/04/28 06:00:45;;;;;;;23.47;9.77;;;7.80;99.90;;;;;;5011903;28;20171;-82
2022/04/28 06:03:10;;;;;;;30.53;10.07;;;7.90;99.90;;;;;;5011684;28;20174;-82
2022/04/28 06:05:36;;;;;;;22.53;10.07;;;8.30;99.90;;;;;;5011458;28;20207;-81
2022/04/28 06:08:01;;;;;;;19.03;8.93;;;8.40;99.90;;;;;;5011671;28;20191;-81
2022/04/28 06:10:27;;;;;;;24.50;8.77;;;8.90;99.90;;;;;;5011308;28;20172;-81
2022/04/28 06:12:53;;;;;;;18.77;8.20;;;9.40;99.90;;;;;;5013521;28;20175;-83
2022/04/28 06:15:19;;;;;;;25.20;9.27;;;9.80;99.90;;;;;;5014675;28;20260;-82
2022/04/28 06:17:44;;;;;;;20.97;8.47;;;9.90;99.90;;;;;;5015420;28;20198;-82
2022/04/28 06:20:10;;;;;;;18.10;8.43;;;10.00;99.90;;;;;;5015333;28;20178;-83
2022/04/28 06:22:36;;;;;;;17.67;8.70;;;10.10;99.90;;;;;;5014048;28;20251;-82
2022/04/28 06:25:02;;;;;;;17.73;8.27;;;10.20;99.90;;;;;;5014258;28;20203;-84
2022/04/28 06:27:28;;;;;;;18.37;8.70;;;10.20;99.90;;;;;;5016639;28;20234;-80
2022/04/28 06:29:54;;;;;;;21.07;8.57;;;10.70;99.90;;;;;;5016357;28;20159;-82
2022/04/28 06:32:20;;;;;;;17.53;8.87;;;10.80;99.90;;;;;;5015606;28;20201;-82
2022/04/28 06:34:49;;;;;;;15.03;8.93;;;11.20;99.90;;;;;;5020240;28;20277;-82
2022/04/28 06:37:15;;;;;;;17.60;8.67;;;10.70;99.90;;;;;;5015738;28;20220;-80
2022/04/28 06:39:41;;;;;;;18.60;8.60;;;11.20;99.90;;;;;;5015643;28;20178;-82
2022/04/28 06:42:07;;;;;;;18.07;8.63;;;11.20;99.90;;;;;;5016935;28;20550;-83
2022/04/28 06:44:33;;;;;;;17.47;8.57;;;10.90;99.90;;;;;;5018681;28;20253;-84
2022/04/28 06:46:59;;;;;;;18.07;8.30;;;10.70;99.90;;;;;;5014658;28;20195;-83
2022/04/28 06:49:25;;;;;;;18.40;8.70;;;10.90;99.90;;;;;;5015545;28;20173;-84
2022/04/28 06:51:51;;;;;;;20.50;8.50;;;11.30;99.90;;;;;;5015294;28;20594;-84
2022/04/28 06:54:17;;;;;;;14.93;8.27;;;11.50;99.90;;;;;;5017090;28;20185;-83
2022/04/28 06:56:43;;;;;;;16.07;8.17;;;12.10;99.90;;;;;;5017801;28;20574;-83
2022/04/28 06:59:09;;;;;;;21.10;8.70;;;12.40;99.90;;;;;;5017863;28;20191;-81
2022/04/28 07:01:35;;;;;;;14.87;8.53;;;12.40;99.90;;;;;;5019779;28;20173;-84
2022/04/28 07:04:01;;;;;;;21.37;8.93;;;12.40;99.90;;;;;;5019634;28;20205;-84
2022/04/28 07:06:27;;;;;;;17.50;8.17;;;12.60;99.20;;;;;;5019583;28;20199;-82
2022/04/28 07:08:53;;;;;;;17.40;8.47;;;12.10;99.60;;;;;;5019674;28;20175;-83
2022/04/28 07:11:18;;;;;;;20.63;8.20;;;12.60;99.90;;;;;;5018693;28;20180;-84
2022/04/28 07:13:44;;;;;;;19.80;8.37;;;12.40;99.40;;;;;;5019202;28;20186;-81
2022/04/28 07:16:09;;;;;;;13.13;7.73;;;12.50;99.90;;;;;;5018251;28;20262;-82
2022/04/28 07:18:35;;;;;;;19.00;8.40;;;12.60;99.20;;;;;;5017795;28;20185;-82
2022/04/28 07:21:03;;;;;;;21.37;8.47;;;12.80;99.10;;;;;;5017812;28;20242;-83
2022/04/28 07:23:28;;;;;;;19.87;7.97;;;13.20;98.30;;;;;;5016845;28;20182;-84
2022/04/28 07:25:54;;;;;;;15.93;7.70;;;13.50;97.10;;;;;;5019037;28;20175;-85
2022/04/28 07:28:20;;;;;;;18.97;8.50;;;14.00;96.10;;;;;;5017211;28;20174;-84
2022/04/28 07:30:46;;;;;;;16.80;7.80;;;13.30;96.30;;;;;;5017649;28;20376;-81
2022/04/28 07:33:11;;;;;;;18.00;7.70;;;13.60;96.30;;;;;;5017453;28;20175;-81
2022/04/28 07:35:37;;;;;;;16.25;7.70;;;13.00;95.60;;;;;;5018115;28;20242;-83
2022/04/28 07:38:04;;;;;;;19.25;7.90;;;14.00;94.60;;;;;;5018363;28;20178;-82
2022/04/28 07:40:30;;;;;;;14.60;7.90;;;14.00;94.90;;;;;;5018069;28;20281;-83
2022/04/28 07:42:56;;;;;;;18.00;7.90;;;13.90;95.20;;;;;;5017921;28;20658;-82
2022/04/28 07:45:22;;;;;;;16.23;8.03;;;14.30;94.00;;;;;;5018260;28;20252;-82
2022/04/28 07:47:49;;;;;;;17.63;8.13;;;14.40;94.10;;;;;;5018082;28;20282;-82
2022/04/28 07:50:16;;;;;;;13.67;8.07;;;14.20;93.10;;;;;;5017866;28;20226;-83
2022/04/28 07:52:43;;;;;;;18.43;7.93;;;14.30;92.90;;;;;;5018540;28;20257;-82
2022/04/28 07:55:09;;;;;;;17.53;7.23;;;14.00;93.50;;;;;;5019045;28;20174;-82
2022/04/28 07:57:35;;;;;;;16.10;7.20;;;14.30;92.50;;;;;;5017836;28;20285;-83
2022/04/28 08:00:03;;;;;;;18.40;7.77;;;15.00;91.90;;;;;;5018895;28;20620;-82
2022/04/28 08:02:29;;;;;;;15.13;7.40;;;14.90;92.00;;;;;;5018164;28;20242;-82
2022/04/28 08:04:55;;;;;;;13.53;7.30;;;15.10;91.90;;;;;;5017714;28;20642;-82
2022/04/28 08:07:21;;;;;;;15.03;6.20;;;15.20;91.30;;;;;;5018393;28;20671;-83
2022/04/28 08:09:47;;;;;;;15.37;6.97;;;15.20;91.40;;;;;;5019008;28;20201;-82
2022/04/28 08:12:13;;;;;;;14.27;6.13;;;15.50;90.70;;;;;;5020740;28;20230;-83
2022/04/28 08:14:39;;;;;;;12.73;6.50;;;16.00;91.30;;;;;;5023356;28;20175;-83
2022/04/28 08:17:05;;;;;;;19.43;6.93;;;15.30;90.70;;;;;;5021100;28;20198;-79
2022/04/28 08:19:32;;;;;;;13.23;7.10;;;15.30;90.40;;;;;;5016536;28;20182;-82
2022/04/28 08:21:59;;;;;;;12.33;6.73;;;15.40;89.80;;;;;;5017894;28;20171;-82
2022/04/28 08:24:24;;;;;;;15.50;7.40;;;15.80;90.30;;;;;;5016269;28;20257;-83
2022/04/28 08:26:51;;;;;;;11.50;5.90;;;15.30;90.50;;;;;;5017058;28;20191;-82
2022/04/28 08:29:17;;;;;;;16.30;6.60;;;16.00;89.60;;;;;;5017408;28;20244;-82
2022/04/28 08:31:46;;;;;;;13.18;6.25;;;15.90;88.80;;;;;;5016441;28;20175;-81
2022/04/28 08:34:13;;;;;;;13.25;6.03;;;16.20;84.90;;;;;;5013446;28;20183;-81
2022/04/28 08:36:42;;;;;;;10.55;6.32;;;15.90;90.80;;;;;;5012923;28;20225;-82
2022/04/28 08:39:08;;;;;;;15.05;6.25;;;15.90;87.50;;;;;;5013348;28;20232;-80
2022/04/28 08:41:35;;;;;;;13.23;6.10;;;15.10;85.30;;;;;;5013422;28;20273;-81
2022/04/28 08:44:04;;;;;;;11.48;6.30;;;15.10;89.10;;;;;;5012553;28;20202;-81
2022/04/28 08:49:15;;;;;;;16.92;6.32;;;15.80;87.00;;;;;;5015911;28;20290;-81
2022/04/28 08:51:42;;;;;;;15.02;6.20;;;16.50;84.10;;;;;;5013884;28;20175;-81
2022/04/28 08:54:12;;;;;;;13.18;6.35;;;17.20;85.40;;;;;;5013772;28;20175;-81
2022/04/28 08:56:39;;;;;;;13.77;6.03;;;16.50;84.50;;;;;;5013848;28;20781;-81
2022/04/28 08:59:06;;;;;;;15.80;6.30;;;16.80;85.40;;;;;;5013948;28;20201;-81
2022/04/28 09:01:32;;;;;;;11.27;6.22;;;16.80;85.50;;;;;;5014289;28;20539;-82
2022/04/28 09:04:00;;;;;;;17.02;6.70;;;17.10;83.90;;;;;;5014707;28;20240;-82
2022/04/28 09:06:28;;;;;;;14.15;6.28;;;16.60;80.30;;;;;;5013803;28;20202;-81
2022/04/28 09:08:55;;;;;;;14.85;6.55;;;15.80;84.50;;;;;;5014238;28;20178;-82
2022/04/28 09:11:27;;;;;;;14.20;6.35;;;15.90;86.60;;;;;;5013844;28;20360;-82
2022/04/28 09:14:10;;;;;;;17.05;6.90;;;16.70;84.60;;;;;;5013560;28;20202;-81
2022/04/28 09:17:04;;;;;;;13.98;6.47;;;17.10;81.80;;;;;;5012585;28;20584;-81
2022/04/28 09:19:38;;;;;;;15.23;6.47;;;17.10;79.50;;;;;;5012227;28;20221;-80
2022/04/28 09:22:13;;;;;;;11.80;6.10;;;17.90;79.70;;;;;;5013336;28;20668;-82
2022/04/28 09:24:40;;;;;;;14.32;7.05;;;17.70;79.10;;;;;;5013426;28;20209;-82
2022/04/28 09:27:07;;;;;;;16.08;7.10;;;17.60;80.40;;;;;;5013594;28;20550;-81
2022/04/28 09:29:39;;;;;;;11.80;6.10;;;17.70;79.70;;;;;;5013373;28;20166;-81
2022/04/28 09:32:13;;;;;;;13.13;6.88;;;17.30;79.10;;;;;;5013315;28;20170;-82
2022/04/28 09:34:49;;;;;;;13.02;6.53;;;17.50;79.10;;;;;;5012007;28;20174;-79
2022/04/28 09:37:20;;;;;;;14.60;6.57;;;17.00;81.00;;;;;;5011950;28;20206;-82
2022/04/28 09:42:39;;;;;;;13.88;6.35;;;16.20;81.00;;;;;;5013298;28;20251;-82
2022/04/28 09:45:06;;;;;;;15.82;6.35;;;16.90;77.50;;;;;;5012030;28;20206;-80
2022/04/28 09:47:32;;;;;;;8.93;5.50;;;16.30;81.10;;;;;;5012284;28;20186;-82
2022/04/28 09:49:58;;;;;;;15.23;5.97;;;17.30;82.40;;;;;;5012944;28;20174;-82
2022/04/28 09:52:24;;;;;;;11.23;5.85;;;17.70;78.80;;;;;;5012143;28;20233;-82
2022/04/28 09:54:56;;;;;;;14.65;5.43;;;17.80;79.20;;;;;;5012385;28;20170;-81
2022/04/28 09:57:22;;;;;;;9.68;5.28;;;18.10;80.00;;;;;;5011671;28;20194;-81
2022/04/28 09:59:55;;;;;;;17.75;5.95;;;18.10;78.00;;;;;;5012127;28;20222;-80
2022/04/28 10:02:25;;;;;;;19.35;6.13;;;18.40;77.40;;;;;;5011541;28;20217;-82
2022/04/28 10:04:52;;;;;;;8.70;5.57;;;18.70;78.00;;;;;;5011632;28;20282;-82
2022/04/28 10:07:18;;;;;;;12.60;5.65;;;18.60;76.00;;;;;;5011492;28;20190;-79
2022/04/28 10:09:47;;;;;;;13.70;5.22;;;18.40;76.50;;;;;;5011500;28;20532;-82
2022/04/28 10:12:14;;;;;;;10.02;5.60;;;17.80;76.30;;;;;;5011654;28;20179;-81
2022/04/28 10:14:42;;;;;;;16.02;5.43;;;18.00;73.10;;;;;;5011292;28;20632;-82
2022/04/28 10:17:29;;;;;;;14.60;5.97;;;18.50;72.70;;;;;;5011352;28;20234;-82
2022/04/28 10:20:01;;;;;;;12.32;5.47;;;17.70;78.70;;;;;;5011767;28;20183;-82
2022/04/28 10:22:33;;;;;;;13.93;5.35;;;18.00;78.60;;;;;;5011216;28;20217;-81
2022/04/28 10:33:24;;;;;;;12.48;5.85;;;18.60;76.90;;;;;;5016681;28;20321;-81
2022/04/28 10:35:50;;;;;;;11.50;5.25;;;19.10;73.90;;;;;;5015135;28;20181;-81
2022/04/28 10:38:31;;;;;;;13.80;5.70;;;19.20;74.80;;;;;;5015214;28;20174;-82
2022/04/28 10:41:08;;;;;;;9.35;4.93;;;18.60;71.70;;;;;;5016056;28;20615;-81
2022/04/28 10:43:34;;;;;;;10.25;4.78;;;18.60;74.80;;;;;;5014704;28;20179;-82
2022/04/28 10:46:09;;;;;;;18.52;5.38;;;18.00;76.50;;;;;;5015588;28;20301;-81
2022/04/28 10:48:44;;;;;;;10.60;4.68;;;18.80;72.90;;;;;;5014714;28;20719;-82
2022/04/28 10:51:22;;;;;;;8.80;4.63;;;19.00;74.80;;;;;;5014587;28;20170;-82
2022/04/28 10:54:24;;;;;;;9.77;4.95;;;18.00;72.30;;;;;;5014739;28;20178;-82
2022/04/28 10:57:02;;;;;;;12.75;5.28;;;18.40;74.90;;;;;;4996890;28;20310;-82
2022/04/28 10:59:29;;;;;;;16.98;5.72;;;19.50;72.10;;;;;;5011926;28;20249;-82
2022/04/28 11:01:55;;;;;;;12.32;5.45;;;19.60;72.30;;;;;;5014375;28;20178;-81
2022/04/28 11:04:23;;;;;;;12.52;5.57;;;18.60;68.80;;;;;;5014496;28;20571;-82
2022/04/28 11:06:56;;;;;;;9.23;5.15;;;18.60;72.90;;;;;;5014197;28;20566;-82
2022/04/28 11:09:40;;;;;;;14.23;5.78;;;17.90;73.80;;;;;;5015342;28;20170;-82
2022/04/28 11:12:13;;;;;;;11.98;4.82;;;18.60;72.00;;;;;;5013901;28;20174;-81
2022/04/28 11:15:06;;;;;;;15.23;5.97;;;18.80;74.10;;;;;;5014220;28;20294;-82
2022/04/28 11:17:35;;;;;;;14.25;5.65;;;19.00;75.10;;;;;;5011413;28;20742;-81
2022/04/28 11:20:09;;;;;;;12.55;5.70;;;18.70;73.20;;;;;;5013706;28;20225;-81
2022/04/28 11:22:35;;;;;;;12.38;5.25;;;18.10;75.20;;;;;;5013832;28;20167;-81
2022/04/28 11:25:10;;;;;;;14.60;5.63;;;19.60;74.80;;;;;;5013753;28;20621;-81
2022/04/28 11:27:35;;;;;;;11.45;5.55;;;20.10;73.40;;;;;;5015823;28;20210;-81
2022/04/28 11:30:03;;;;;;;13.90;6.03;;;18.60;72.70;;;;;;5015661;28;20205;-80
2022/04/28 11:32:28;;;;;;;14.60;6.38;;;17.40;73.20;;;;;;5015572;28;20522;-82
2022/04/28 11:34:57;;;;;;;12.27;5.72;;;19.20;70.40;;;;;;5016573;28;20233;-80
2022/04/28 11:37:25;;;;;;;14.65;5.28;;;19.60;72.50;;;;;;5015667;28;20199;-81
2022/04/28 11:39:56;;;;;;;8.82;4.78;;;19.90;70.60;;;;;;5015407;28;20175;-81
2022/04/28 11:42:24;;;;;;;13.27;5.43;;;20.40;71.70;;;;;;5015962;28;20179;-81
2022/04/28 11:44:54;;;;;;;10.93;5.72;;;19.90;72.60;;;;;;5015592;28;20195;-82
2022/04/28 11:47:21;;;;;;;13.07;5.32;;;19.80;70.70;;;;;;5016742;28;20542;-83
2022/04/28 11:49:49;;;;;;;12.40;5.20;;;19.50;70.10;;;;;;5016344;28;20214;-82
2022/04/28 11:52:23;;;;;;;11.57;5.35;;;20.00;71.30;;;;;;5016663;28;20594;-81
2022/04/28 11:55:08;;;;;;;10.45;5.50;;;19.80;71.10;;;;;;5016201;28;20182;-82
2022/04/28 11:57:39;;;;;;;14.00;5.20;;;18.90;68.70;;;;;;5016043;28;20355;-81
2022/04/28 12:00:12;;;;;;;18.88;5.65;;;17.90;73.30;;;;;;5015688;28;20187;-82
2022/04/28 12:02:39;;;;;;;10.43;5.57;;;18.90;74.20;;;;;;5015373;28;20174;-82
2022/04/28 12:05:16;;;;;;;9.38;5.30;;;18.50;71.60;;;;;;5015173;28;20288;-82
2022/04/28 12:07:51;;;;;;;14.13;5.18;;;17.40;72.40;;;;;;5014981;28;20194;-82
2022/04/28 12:16:06;;;;;;;13.05;5.15;;;19.60;70.00;;;;;;5016742;28;20280;-83
2022/04/28 12:21:23;;;;;;;10.15;4.72;;;19.20;69.70;;;;;;5016981;28;20205;-81
2022/04/28 12:23:58;;;;;;;11.35;4.45;;;19.50;70.90;;;;;;5015249;28;20163;-81
2022/04/28 12:26:24;;;;;;;15.90;5.25;;;19.00;72.20;;;;;;5016288;28;20198;-81
2022/04/28 12:28:51;;;;;;;11.60;4.40;;;18.40;72.00;;;;;;5015050;28;20225;-82
2022/04/28 12:31:31;;;;;;;12.95;4.57;;;18.30;71.20;;;;;;5016047;28;20229;-82
2022/04/28 12:33:58;;;;;;;11.85;4.65;;;18.00;72.80;;;;;;5020785;28;20175;-82
2022/04/28 12:36:24;;;;;;;11.20;4.88;;;18.10;71.60;;;;;;5020427;28;20198;-81
2022/04/28 12:38:56;;;;;;;10.43;4.40;;;17.20;73.00;;;;;;5020501;28;20179;-81
2022/04/28 12:41:30;;;;;;;10.25;5.10;;;17.30;73.50;;;;;;5019896;28;20171;-81
2022/04/28 12:43:59;;;;;;;11.27;5.13;;;17.10;73.60;;;;;;5016777;28;20174;-81
2022/04/28 12:46:34;;;;;;;11.50;5.80;;;17.50;72.40;;;;;;5019137;28;20249;-81
2022/04/28 12:49:06;;;;;;;13.97;4.90;;;16.70;73.60;;;;;;5017187;28;20166;-81
2022/04/28 12:51:47;;;;;;;12.33;5.80;;;17.50;74.40;;;;;;5016033;28;20182;-83
2022/04/28 12:54:19;;;;;;;11.50;4.50;;;16.70;75.50;;;;;;5015927;28;20178;-82
2022/04/28 12:56:54;;;;;;;10.80;4.50;;;17.20;74.40;;;;;;5014365;28;20196;-82
2022/04/28 12:59:27;;;;;;;9.00;4.37;;;17.70;73.70;;;;;;5015365;28;20194;-83
2022/04/28 13:01:54;;;;;;;9.87;4.30;;;17.10;74.20;;;;;;5017000;28;20169;-81
2022/04/28 13:04:22;;;;;;;10.27;4.33;;;17.10;72.50;;;;;;5018187;28;20549;-83
2022/04/28 13:06:49;;;;;;;10.80;4.73;;;17.50;72.80;;;;;;5016846;28;20186;-82
2022/04/28 13:09:16;;;;;;;12.23;4.60;;;16.80;71.20;;;;;;5016078;28;20233;-83
2022/04/28 13:11:45;;;;;;;16.73;4.53;;;16.50;73.20;;;;;;5014974;28;20619;-82
2022/04/28 13:14:17;;;;;;;9.77;4.37;;;17.40;73.40;;;;;;5015729;28;20202;-82
2022/04/28 13:16:42;;;;;;;11.90;4.73;;;17.20;72.50;;;;;;5014463;28;20233;-82
2022/04/28 13:19:10;;;;;;;13.13;4.67;;;16.60;75.80;;;;;;5014449;28;20171;-80
2022/04/28 13:21:37;;;;;;;7.83;4.43;;;16.70;75.60;;;;;;5013817;28;20170;-83